Osceola, Arkansas
Current Conditions -  °F | °C
As of 2:53 AM on Thursday 23 Oct 2014 (Local Time) from KHKA Reporting Station
Clear Clear  
Wind Chill: 43°   Ceiling: Unl
Heat Index: 43°   Visibility: 10mi
Dew Point: 41°   Wind: 3mph
Humidity: 93%   Direction: 70°ENE
Pressure: 30.2"   Gusts: NA
Location:  35.71°N, 89.97°W
Report Text: KHKA 230753Z AUTO 07003KT 10SM CLR 06/05 A3020 RMK AO2 SLP226 T00610050
Loading
Personal Weather Stations






























Interactive Weather Map New forecast layout! Learn more

10-Day Weather Forecast

Advertisements
Track Severe Weather on mobile